Time;durP1;ratioP1;P1;durP2;ratioP2;P2;SDS_P1;SDS_P2;PMS_P1;PMS_P2;Temp;Humidity;BMP_temperature;BMP_pressure;BME280_temperature;BME280_humidity;BME280_pressure;Samples;Min_cycle;Max_cycle;Signal;HPM_P1;HPM_P2
2021/12/24 00:01:46;;;;;;;24.52;17.17;;;;;;;7.26;88.09;98646.88;4971349;28;20026;-75
2021/12/24 00:04:12;;;;;;;25.13;17.95;;;;;;;7.24;88.21;98639.09;4988854;28;20041;-75
2021/12/24 00:06:38;;;;;;;24.23;17.23;;;;;;;7.23;88.52;98642.63;4971779;28;20110;-76
2021/12/24 00:09:05;;;;;;;27.80;18.02;;;;;;;7.19;88.62;98637.66;4993135;28;20038;-76
2021/12/24 00:11:31;;;;;;;25.48;18.30;;;;;;;7.17;89.12;98639.53;4992286;28;20034;-76
2021/12/24 00:13:58;;;;;;;25.83;17.83;;;;;;;7.16;88.77;98648.28;4974630;28;20042;-74
2021/12/24 00:16:30;;;;;;;27.38;18.42;;;;;;;7.16;88.98;98648.28;4992084;28;20038;-75
2021/12/24 00:19:03;;;;;;;27.05;17.50;;;;;;;7.16;89.08;98638.69;4999081;28;20034;-75
2021/12/24 00:37:19;;;;;;;22.75;17.65;;;;;;;7.26;88.83;98639.88;4991291;28;20041;-76
2021/12/24 00:39:53;;;;;;;27.08;18.13;;;;;;;7.28;88.95;98637.16;4992701;28;20058;-76
2021/12/24 00:42:18;;;;;;;25.08;18.00;;;;;;;7.28;88.84;98624.88;4991947;28;20038;-74
2021/12/24 00:44:44;;;;;;;20.30;15.23;;;;;;;7.26;89.07;98629.38;4991416;28;20049;-75
2021/12/24 00:47:09;;;;;;;25.02;14.25;;;;;;;7.28;89.30;98626.66;4973036;28;20499;-75
2021/12/24 00:49:35;;;;;;;19.48;15.20;;;;;;;7.31;89.18;98627.34;4955768;28;20089;-76
2021/12/24 00:52:33;;;;;;;18.75;15.40;;;;;;;7.33;89.37;98624.63;4972870;28;20387;-76
2021/12/24 00:55:09;;;;;;;22.92;16.48;;;;;;;7.35;89.40;98621.94;4954453;28;20126;-75
2021/12/24 00:57:36;;;;;;;22.52;15.50;;;;;;;7.37;89.25;98620.09;4972758;28;20038;-75
2021/12/24 01:00:23;;;;;;;23.65;15.70;;;;;;;7.38;89.36;98613.91;4972541;28;20101;-74
2021/12/24 01:02:51;;;;;;;27.67;17.58;;;;;;;7.37;89.08;98615.69;4972675;28;20085;-74
2021/12/24 01:05:18;;;;;;;19.13;14.45;;;;;;;7.36;89.29;98608.75;4971921;28;20038;-75
2021/12/24 01:07:45;;;;;;;21.13;15.15;;;;;;;7.36;89.64;98608.75;4972692;28;20101;-74
2021/12/24 01:10:12;;;;;;;20.95;14.85;;;;;;;7.36;89.84;98608.75;4974690;28;20376;-74
2021/12/24 01:12:39;;;;;;;20.73;14.05;;;;;;;7.37;89.96;98610.44;4975247;28;20081;-74
2021/12/24 01:15:06;;;;;;;23.73;16.70;;;;;;;7.31;89.68;98605.53;4974657;28;20038;-74
2021/12/24 01:18:11;;;;;;;22.95;14.05;;;;;;;7.31;89.76;98601.16;4972453;28;20034;-74
2021/12/24 01:25:44;;;;;;;22.08;15.45;;;;;;;7.26;89.96;98594.44;4991588;28;20061;-73
2021/12/24 01:39:21;;;;;;;24.02;16.88;;;;;;;7.26;89.69;98592.69;4990965;28;20122;-74
2021/12/24 01:44:32;;;;;;;27.92;18.27;;;;;;;7.25;89.97;98585.72;4989878;28;20044;-74
2021/12/24 01:47:01;;;;;;;29.75;18.73;;;;;;;7.26;89.98;98590.06;4990574;28;20034;-75
2021/12/24 01:49:26;;;;;;;29.38;18.90;;;;;;;7.26;89.67;98583.94;4990571;28;20045;-74
2021/12/24 01:51:54;;;;;;;26.48;18.30;;;;;;;7.30;89.83;98585.50;4973464;28;20034;-74
2021/12/24 01:54:19;;;;;;;24.48;17.50;;;;;;;7.31;89.54;98587.19;4991524;28;20072;-74
2021/12/24 01:56:46;;;;;;;37.53;18.33;;;;;;;7.32;89.36;98599.38;4998123;28;20056;-74
2021/12/24 01:59:12;;;;;;;27.25;18.00;;;;;;;7.35;89.73;98588.69;5003859;28;20037;-74
2021/12/24 02:01:38;;;;;;;25.83;18.63;;;;;;;7.37;89.26;98593.88;4937002;28;20046;-74
2021/12/24 02:04:04;;;;;;;24.25;17.38;;;;;;;7.40;89.25;98591.06;4989064;28;20153;-74
2021/12/24 02:06:29;;;;;;;25.10;17.67;;;;;;;7.40;89.44;98585.81;4989832;28;20042;-74
2021/12/24 02:08:55;;;;;;;29.92;18.27;;;;;;;7.43;88.78;98583.91;4990460;28;20035;-74
2021/12/24 02:11:21;;;;;;;40.45;18.20;;;;;;;7.45;88.66;98589.88;4990397;28;20042;-74
2021/12/24 02:13:47;;;;;;;24.15;15.18;;;;;;;7.48;88.14;98589.72;4990481;28;20034;-75
2021/12/24 02:16:37;;;;;;;21.52;15.02;;;;;;;7.52;88.10;98590.38;4989604;28;20035;-74
2021/12/24 02:29:54;;;;;;;24.98;16.83;;;;;;;7.64;87.52;98584.44;4989417;28;20462;-74
2021/12/24 02:32:20;;;;;;;25.90;17.33;;;;;;;7.65;87.38;98580.03;4989903;28;20046;-74
2021/12/24 02:34:45;;;;;;;31.33;15.82;;;;;;;7.65;87.52;98574.78;4989479;28;20498;-74
2021/12/24 02:37:11;;;;;;;24.48;16.13;;;;;;;7.65;87.75;98570.38;4989278;28;20058;-74
2021/12/24 02:39:37;;;;;;;33.10;18.52;;;;;;;7.64;88.05;98573.97;4989997;28;20110;-74
2021/12/24 02:42:18;;;;;;;25.58;16.85;;;;;;;7.65;88.40;98561.69;4972578;28;20506;-74
2021/12/24 02:44:45;;;;;;;26.08;16.35;;;;;;;7.63;89.01;98569.66;4989088;28;20383;-74
2021/12/24 02:48:07;;;;;;;25.92;17.23;;;;;;;7.57;88.78;98564.75;4971626;28;20037;-74
2021/12/24 02:55:12;;;;;;;;;;;;;;;7.56;89.66;98564.84;4989233;28;20116;-74
2021/12/24 02:57:39;;;;;;;24.65;15.68;;;;;;;7.55;89.59;98563.13;4990023;28;20012;-74
2021/12/24 03:00:14;;;;;;;23.88;15.65;;;;;;;7.56;89.93;98562.22;4989406;28;20407;-74
2021/12/24 03:02:40;;;;;;;22.67;16.02;;;;;;;7.58;89.52;98560.34;4973528;28;20088;-74
2021/12/24 03:05:07;;;;;;;30.80;15.60;;;;;;;7.57;89.97;98551.63;4989208;28;20041;-74
2021/12/24 03:07:32;;;;;;;20.88;15.27;;;;;;;7.61;90.06;98562.81;4989491;28;20031;-74
2021/12/24 03:09:59;;;;;;;27.75;18.05;;;;;;;7.63;89.39;98568.78;4989517;28;20533;-74
2021/12/24 03:12:26;;;;;;;22.48;16.02;;;;;;;7.65;89.82;98557.28;4988726;28;20476;-74
2021/12/24 03:14:52;;;;;;;22.80;14.30;;;;;;;7.66;89.51;98561.59;4989281;28;20034;-74
2021/12/24 03:17:21;;;;;;;22.30;13.88;;;;;;;7.70;90.09;98550.03;4989746;28;20035;-74
2021/12/24 03:19:47;;;;;;;24.27;17.05;;;;;;;7.73;89.25;98554.25;4975010;28;20046;-74
2021/12/24 03:22:29;;;;;;;23.00;16.17;;;;;;;7.74;88.83;98566.41;5001429;28;20034;-74
2021/12/24 03:24:54;;;;;;;22.52;15.05;;;;;;;7.78;89.20;98553.94;5005968;28;20052;-74
2021/12/24 03:27:22;;;;;;;22.48;13.68;;;;;;;7.82;88.21;98556.31;5004510;28;20065;-74
2021/12/24 03:29:48;;;;;;;21.50;14.88;;;;;;;7.84;87.97;98557.06;4985314;28;20042;-74
2021/12/24 03:32:14;;;;;;;19.92;12.90;;;;;;;7.86;87.96;98560.47;5000383;28;20069;-74
2021/12/24 03:34:40;;;;;;;31.90;15.35;;;;;;;7.87;87.72;98559.50;4995042;28;20034;-74
2021/12/24 03:37:06;;;;;;;23.00;13.70;;;;;;;7.92;87.72;98560.09;4995027;28;20117;-74
2021/12/24 03:39:31;;;;;;;29.77;15.18;;;;;;;7.93;87.27;98551.31;4993965;28;20113;-74
2021/12/24 03:41:57;;;;;;;30.52;15.98;;;;;;;7.97;87.05;98544.09;4998597;28;20065;-75
2021/12/24 03:44:31;;;;;;;20.23;12.50;;;;;;;7.96;87.14;98547.66;5001648;28;20045;-74
2021/12/24 03:47:11;;;;;;;27.35;15.65;;;;;;;8.00;86.35;98551.78;5002785;28;20030;-73
2021/12/24 03:50:02;;;;;;;20.25;12.73;;;;;;;8.00;86.67;98541.28;5008307;28;20049;-74
2021/12/24 03:55:09;;;;;;;24.10;14.18;;;;;;;8.04;86.70;98540.16;4998279;28;20057;-73
2021/12/24 03:57:39;;;;;;;25.35;13.48;;;;;;;8.05;86.11;98536.63;4992940;28;20486;-74
2021/12/24 04:00:08;;;;;;;17.63;11.77;;;;;;;8.08;86.24;98535.59;4992556;28;20035;-74
2021/12/24 04:02:34;;;;;;;22.08;12.68;;;;;;;8.08;85.93;98535.59;4975639;28;20038;-74
2021/12/24 04:04:59;;;;;;;20.15;11.90;;;;;;;8.06;85.43;98532.22;4992138;28;20044;-76
2021/12/24 04:07:24;;;;;;;15.90;12.73;;;;;;;8.09;85.52;98532.03;4992555;28;20045;-75
2021/12/24 04:10:01;;;;;;;23.23;13.32;;;;;;;8.11;85.15;98535.41;4992627;28;20489;-76
2021/12/24 04:12:27;;;;;;;23.25;11.45;;;;;;;8.08;85.67;98525.94;4976551;28;20109;-76
2021/12/24 04:14:53;;;;;;;23.73;12.35;;;;;;;8.08;84.78;98536.44;4992116;28;20125;-76
2021/12/24 04:17:19;;;;;;;22.20;12.10;;;;;;;8.08;84.96;98535.59;4991867;28;20026;-76
2021/12/24 04:25:13;;;;;;;22.48;11.80;;;;;;;8.10;84.74;98550.31;4991497;28;20038;-75
2021/12/24 04:27:38;;;;;;;18.17;12.50;;;;;;;8.15;84.50;98555.31;4992586;28;20402;-76
2021/12/24 04:30:12;;;;;;;26.23;11.60;;;;;;;8.13;84.85;98557.16;4974241;28;20113;-75
2021/12/24 04:35:47;;;;;;;27.67;12.27;;;;;;;8.15;84.90;98552.69;4991696;28;20062;-75
2021/12/24 04:51:56;;;;;;;17.60;11.35;;;;;;;8.24;84.28;98546.84;4991827;28;20137;-75
2021/12/24 05:05:28;;;;;;;22.17;12.07;;;;;;;8.22;84.07;98533.00;4990722;28;20041;-76
2021/12/24 05:10:23;;;;;;;19.77;11.52;;;;;;;8.22;84.34;98533.00;4991376;28;20498;-76
2021/12/24 05:12:48;;;;;;;18.48;12.00;;;;;;;8.23;83.86;98539.09;4974821;28;20042;-75
2021/12/24 05:15:14;;;;;;;22.77;13.07;;;;;;;8.23;84.07;98547.81;4991874;28;20100;-76
2021/12/24 05:22:57;;;;;;;18.98;9.93;;;;;;;8.28;83.83;98547.53;4995703;28;20077;-74
2021/12/24 05:25:23;;;;;;;16.00;11.00;;;;;;;8.29;83.23;98546.59;4991984;28;20031;-76
2021/12/24 05:27:51;;;;;;;22.50;11.82;;;;;;;8.27;83.57;98544.06;4991548;28;20042;-76
2021/12/24 05:30:18;;;;;;;17.10;11.65;;;;;;;8.29;83.28;98550.03;4991269;28;20042;-76
2021/12/24 05:32:44;;;;;;;18.77;10.35;;;;;;;8.29;83.20;98552.66;4973663;28;20363;-75
2021/12/24 05:35:09;;;;;;;22.90;11.10;;;;;;;8.33;83.20;98553.34;4990596;28;20030;-76
2021/12/24 05:37:35;;;;;;;17.75;11.02;;;;;;;8.34;82.93;98555.03;4990970;28;20411;-75
2021/12/24 05:40:01;;;;;;;22.42;10.27;;;;;;;8.35;82.70;98559.34;4994603;28;20041;-75
2021/12/24 05:42:27;;;;;;;16.83;9.70;;;;;;;8.35;82.94;98567.25;4996371;28;20387;-75
2021/12/24 05:44:56;;;;;;;16.33;9.68;;;;;;;8.36;82.46;98556.63;4992712;28;20038;-78
2021/12/24 05:47:22;;;;;;;21.67;11.80;;;;;;;8.35;82.41;98560.19;4992511;28;20042;-75
2021/12/24 05:49:47;;;;;;;18.10;11.32;;;;;;;8.32;82.47;98562.19;4975663;28;20038;-76
2021/12/24 05:52:12;;;;;;;19.08;10.70;;;;;;;8.32;83.12;98560.38;4975899;28;20057;-76
2021/12/24 05:54:38;;;;;;;22.35;10.30;;;;;;;8.33;83.24;98567.31;4995085;28;20034;-76
2021/12/24 05:57:04;;;;;;;15.93;10.32;;;;;;;8.33;82.53;98574.34;4978394;28;20405;-75
2021/12/24 05:59:29;;;;;;;18.15;10.63;;;;;;;8.33;82.81;98571.72;4998629;28;20118;-75
2021/12/24 06:01:55;;;;;;;18.80;10.93;;;;;;;8.30;82.85;98575.38;4994104;28;20066;-75
2021/12/24 06:04:20;;;;;;;26.33;11.35;;;;;;;8.31;82.77;98581.47;4985314;28;20034;-76
2021/12/24 06:06:45;;;;;;;20.85;9.95;;;;;;;8.27;82.69;98578.19;4977325;28;20026;-74
2021/12/24 06:09:11;;;;;;;22.50;10.35;;;;;;;8.28;82.85;98573.78;4998706;28;20038;-76
2021/12/24 06:11:36;;;;;;;23.27;11.88;;;;;;;8.24;83.07;98574.91;4994788;28;20042;-76
2021/12/24 06:14:09;;;;;;;22.67;11.80;;;;;;;8.25;82.68;98579.22;4978321;28;20126;-76
2021/12/24 06:16:35;;;;;;;19.02;12.63;;;;;;;8.27;82.58;98582.59;4976419;28;20524;-76
2021/12/24 06:19:02;;;;;;;26.63;12.60;;;;;;;8.25;83.08;98579.22;4990534;28;20066;-76
2021/12/24 06:21:27;;;;;;;23.83;13.30;;;;;;;8.25;82.86;98572.19;4990302;28;20034;-76
2021/12/24 06:23:53;;;;;;;17.02;10.98;;;;;;;8.24;83.25;98564.41;4990363;28;20034;-76
2021/12/24 06:26:18;;;;;;;18.20;12.10;;;;;;;8.24;82.89;98561.75;4989333;28;20089;-76
2021/12/24 06:28:43;;;;;;;22.45;11.77;;;;;;;8.24;82.66;98565.22;4990856;28;20065;-77
2021/12/24 06:31:09;;;;;;;20.55;11.75;;;;;;;8.21;83.11;98564.59;4990068;28;20117;-76
2021/12/24 06:33:35;;;;;;;22.48;12.25;;;;;;;8.23;82.71;98560.94;4989897;28;20045;-76
2021/12/24 06:36:00;;;;;;;24.52;10.68;;;;;;;8.22;83.46;98561.88;4972025;28;20045;-75
2021/12/24 06:38:26;;;;;;;22.52;11.10;;;;;;;8.21;83.30;98570.66;4989799;28;20537;-77
2021/12/24 06:40:54;;;;;;;19.83;12.07;;;;;;;8.21;83.59;98567.22;4989732;28;20031;-76
2021/12/24 06:43:20;;;;;;;21.55;11.75;;;;;;;8.21;83.11;98569.84;4989499;28;20073;-76
2021/12/24 06:45:47;;;;;;;23.30;11.90;;;;;;;8.23;83.18;98566.19;4972087;28;20061;-76
2021/12/24 06:48:13;;;;;;;20.25;12.05;;;;;;;8.24;83.67;98572.28;4989987;28;20158;-75
2021/12/24 06:50:38;;;;;;;23.40;10.63;;;;;;;8.24;82.85;98574.91;4989088;28;20127;-77
2021/12/24 06:53:03;;;;;;;22.65;11.02;;;;;;;8.23;83.21;98570.59;4989801;28;20065;-76
2021/12/24 06:55:29;;;;;;;26.52;11.98;;;;;;;8.23;83.52;98567.97;4989076;28;20042;-76
2021/12/24 06:57:55;;;;;;;16.40;11.00;;;;;;;8.21;83.68;98578.53;4989326;28;20113;-75
2021/12/24 07:00:22;;;;;;;24.25;10.75;;;;;;;8.23;82.93;98583.72;4989929;28;20157;-76
2021/12/24 07:02:49;;;;;;;24.77;13.55;;;;;;;8.25;83.17;98590.56;4989738;28;20561;-76
2021/12/24 07:05:14;;;;;;;25.52;12.07;;;;;;;8.25;83.42;98593.19;4989351;28;20076;-75
2021/12/24 07:07:40;;;;;;;23.95;12.85;;;;;;;8.25;83.18;98593.19;4989485;28;20058;-76
2021/12/24 07:10:06;;;;;;;17.90;11.73;;;;;;;8.25;83.56;98584.47;4989466;28;20049;-76
2021/12/24 07:12:31;;;;;;;21.95;10.88;;;;;;;8.27;82.94;98579.97;4989034;28;20038;-75
2021/12/24 07:14:57;;;;;;;29.27;15.38;;;;;;;8.27;83.43;98586.06;4990445;28;20490;-74
2021/12/24 07:17:22;;;;;;;24.75;13.60;;;;;;;8.28;83.03;98586.91;4990743;28;20121;-76
2021/12/24 07:19:49;;;;;;;22.55;11.98;;;;;;;8.27;82.90;98583.44;4991313;28;20065;-74
2021/12/24 07:22:16;;;;;;;23.30;11.90;;;;;;;8.27;82.47;98580.81;4995701;28;20045;-76
2021/12/24 07:24:42;;;;;;;20.50;12.00;;;;;;;8.28;82.94;98579.03;5001530;28;20042;-76
2021/12/24 07:27:07;;;;;;;23.63;12.27;;;;;;;8.25;82.45;98582.69;4982495;28;20397;-75
2021/12/24 07:29:33;;;;;;;25.80;12.48;;;;;;;8.28;82.98;98576.41;4989243;28;20074;-76
2021/12/24 07:31:58;;;;;;;26.45;11.63;;;;;;;8.25;82.51;98571.34;4972235;28;20042;-76
2021/12/24 07:34:24;;;;;;;32.67;13.57;;;;;;;8.24;82.33;98574.91;4988887;28;20030;-76
2021/12/24 07:36:50;;;;;;;24.30;11.70;;;;;;;8.22;82.63;98577.63;4989297;28;20129;-75
2021/12/24 07:39:15;;;;;;;26.33;12.40;;;;;;;8.23;82.39;98579.31;4989308;28;20049;-78
2021/12/24 07:41:41;;;;;;;21.25;11.25;;;;;;;8.25;82.53;98580.06;4987679;28;20042;-76
2021/12/24 07:44:07;;;;;;;27.95;13.93;;;;;;;8.24;81.81;98582.78;4990226;28;20154;-75
2021/12/24 07:46:40;;;;;;;24.38;13.23;;;;;;;8.20;82.12;98576.88;4989527;28;20038;-75
2021/12/24 07:49:30;;;;;;;29.20;17.17;;;;;;;8.22;82.45;98580.25;4991029;28;20516;-76
2021/12/24 07:52:09;;;;;;;31.15;14.98;;;;;;;8.18;82.35;98576.94;4989128;28;20038;-76
2021/12/24 07:54:46;;;;;;;20.38;12.82;;;;;;;8.14;82.12;98582.47;5004850;28;20058;-76
2021/12/24 07:57:13;;;;;;;23.08;13.70;;;;;;;8.12;82.40;98574.69;4994398;28;20030;-76
2021/12/24 07:59:41;;;;;;;21.77;14.07;;;;;;;8.10;82.26;98584.44;4989167;28;20080;-76
2021/12/24 08:02:29;;;;;;;21.77;12.55;;;;;;;8.11;82.62;98578.25;4988949;28;20071;-76
2021/12/24 08:04:54;;;;;;;31.15;13.80;;;;;;;8.11;82.36;98590.53;4988208;28;20023;-76
2021/12/24 08:07:20;;;;;;;22.30;12.55;;;;;;;8.08;82.57;98585.47;4988906;28;20041;-76
2021/12/24 08:09:47;;;;;;;25.83;11.90;;;;;;;8.08;82.24;98591.56;4989288;28;20066;-76
2021/12/24 08:12:13;;;;;;;20.23;11.52;;;;;;;8.04;82.06;98597.06;4989112;28;20088;-76
2021/12/24 08:14:38;;;;;;;26.83;12.60;;;;;;;8.04;82.15;98589.19;4988458;28;20042;-76
2021/12/24 08:17:05;;;;;;;29.15;13.18;;;;;;;8.07;82.15;98586.38;4988899;28;20042;-76
2021/12/24 08:19:30;;;;;;;17.48;11.60;;;;;;;8.07;82.60;98589.88;4988713;28;20030;-76
2021/12/24 08:21:57;;;;;;;33.97;14.20;;;;;;;8.09;82.33;98593.22;4989274;28;20738;-76
2021/12/24 08:24:22;;;;;;;24.75;12.18;;;;;;;8.07;81.63;98595.13;4988554;28;20173;-76
2021/12/24 08:26:48;;;;;;;24.58;12.77;;;;;;;8.06;81.80;98592.56;4987256;28;20030;-76
2021/12/24 08:29:13;;;;;;;19.02;11.52;;;;;;;8.11;81.98;98594.00;4976178;28;20038;-77
2021/12/24 08:31:38;;;;;;;19.05;11.18;;;;;;;8.12;81.30;98582.56;4997191;28;20465;-74
2021/12/24 08:34:05;;;;;;;23.85;12.15;;;;;;;8.12;81.85;98585.19;4996097;28;20057;-76
2021/12/24 08:36:31;;;;;;;25.77;11.98;;;;;;;8.15;82.04;98579.75;4995834;28;20057;-75
2021/12/24 08:38:57;;;;;;;21.42;10.93;;;;;;;8.17;81.88;98574.41;4978909;28;20047;-75
2021/12/24 08:41:24;;;;;;;22.48;10.95;;;;;;;8.17;81.27;98575.28;4996940;28;20150;-75
2021/12/24 08:43:50;;;;;;;18.75;10.50;;;;;;;8.22;81.15;98574.13;4991865;28;20050;-75
2021/12/24 08:46:15;;;;;;;18.65;11.20;;;;;;;8.27;81.17;98569.47;4991323;28;20596;-76
2021/12/24 08:48:41;;;;;;;24.95;12.82;;;;;;;8.24;81.64;98567.03;4992131;28;20038;-75
2021/12/24 08:51:06;;;;;;;30.45;13.35;;;;;;;8.27;81.63;98564.19;4991745;28;20039;-76
2021/12/24 08:53:31;;;;;;;19.98;11.45;;;;;;;8.28;81.11;98566.75;4992417;28;20030;-76
2021/12/24 08:55:57;;;;;;;22.70;11.35;;;;;;;8.24;81.32;98569.66;4991934;28;20034;-76
2021/12/24 08:58:22;;;;;;;26.35;12.15;;;;;;;8.23;81.62;98560.94;4991053;28;20034;-77
2021/12/24 09:00:48;;;;;;;25.55;11.55;;;;;;;8.20;81.54;98566.38;4992245;28;20177;-75
2021/12/24 09:03:13;;;;;;;22.92;10.98;;;;;;;8.21;81.08;98559.34;4992810;28;20505;-76
2021/12/24 09:05:39;;;;;;;20.92;10.60;;;;;;;8.21;81.66;98557.53;4993288;28;20067;-75
2021/12/24 09:08:04;;;;;;;17.88;10.45;;;;;;;8.20;81.11;98561.13;4974739;28;20629;-77
2021/12/24 09:10:30;;;;;;;19.77;10.20;;;;;;;8.20;81.41;98555.88;4974327;28;20046;-74
2021/12/24 09:12:56;;;;;;;19.20;10.50;;;;;;;8.24;81.12;98554.72;4992477;28;20073;-75
2021/12/24 09:15:27;;;;;;;18.88;10.82;;;;;;;8.23;81.17;98542.56;4974294;28;20565;-75
2021/12/24 09:17:53;;;;;;;24.33;13.27;;;;;;;8.22;80.68;98546.13;4991588;28;20588;-74
2021/12/24 09:20:25;;;;;;;23.50;11.98;;;;;;;8.24;81.28;98541.59;4992173;28;20553;-73
2021/12/24 09:22:51;;;;;;;16.05;9.68;;;;;;;8.23;81.15;98546.97;4972089;28;20035;-77
2021/12/24 09:25:16;;;;;;;17.45;9.13;;;;;;;8.23;80.86;98554.84;4971930;28;20034;-75
2021/12/24 09:27:43;;;;;;;20.60;8.68;;;;;;;8.25;81.47;98559.06;4972098;28;20115;-75
2021/12/24 09:30:09;;;;;;;20.17;10.05;;;;;;;8.27;81.11;98541.44;4955030;28;20058;-74
2021/12/24 09:32:35;;;;;;;18.17;9.57;;;;;;;8.26;80.97;98538.91;4972162;28;20653;-75
2021/12/24 09:35:00;;;;;;;20.73;10.52;;;;;;;8.28;81.30;98545.75;4970902;28;20061;-75
2021/12/24 09:37:26;;;;;;;23.17;10.18;;;;;;;8.31;81.27;98544.72;4972407;28;20034;-76
2021/12/24 09:39:52;;;;;;;21.08;10.88;;;;;;;8.36;80.96;98551.38;4970858;28;20054;-75
2021/12/24 09:42:17;;;;;;;20.35;9.20;;;;;;;8.38;80.69;98546.03;4972123;28;20097;-76
2021/12/24 09:44:42;;;;;;;22.17;9.75;;;;;;;8.37;80.70;98539.94;4971477;28;20038;-75
2021/12/24 09:47:08;;;;;;;17.08;8.52;;;;;;;8.43;80.58;98551.88;4957127;28;20109;-75
2021/12/24 09:49:33;;;;;;;24.38;9.52;;;;;;;8.48;80.45;98551.63;4984199;28;20439;-75
2021/12/24 09:52:02;;;;;;;21.77;9.07;;;;;;;8.50;80.35;98549.75;4992326;28;20042;-76
2021/12/24 09:54:27;;;;;;;24.13;8.68;;;;;;;8.51;80.11;98554.03;4980931;28;20022;-77
2021/12/24 09:56:56;;;;;;;21.67;8.98;;;;;;;8.54;79.66;98546.84;4993424;28;20037;-74
2021/12/24 09:59:25;;;;;;;20.83;8.02;;;;;;;8.62;79.06;98556.88;4976633;28;20034;-75
2021/12/24 10:01:56;;;;;;;21.42;8.70;;;;;;;8.74;78.90;98550.03;4994092;28;20375;-76
2021/12/24 10:04:24;;;;;;;21.67;9.63;;;;;;;8.76;78.90;98542.88;4974148;28;20034;-76
2021/12/24 10:06:53;;;;;;;16.38;8.82;;;;;;;8.77;78.58;98548.06;4990041;28;20030;-75
2021/12/24 10:09:20;;;;;;;19.65;7.45;;;;;;;8.84;79.21;98539.81;4990928;28;20541;-76
2021/12/24 10:12:07;;;;;;;16.73;8.05;;;;;;;8.80;78.90;98545.22;4991030;28;20050;-75
2021/12/24 10:14:38;;;;;;;20.88;8.30;;;;;;;8.84;78.72;98531.91;4990616;28;20034;-77
2021/12/24 10:17:14;;;;;;;24.15;9.13;;;;;;;8.92;78.22;98532.28;4991657;28;20067;-78
2021/12/24 10:19:48;;;;;;;18.95;7.32;;;;;;;9.04;78.21;98531.50;4993564;28;20038;-77
2021/12/24 10:22:14;;;;;;;18.83;7.55;;;;;;;9.13;77.68;98528.31;4974755;28;20027;-75
2021/12/24 10:24:40;;;;;;;22.83;8.98;;;;;;;9.17;76.86;98523.69;4992732;28;20054;-76
2021/12/24 10:27:05;;;;;;;22.80;9.18;;;;;;;9.29;76.37;98527.31;4992492;28;20053;-76
2021/12/24 10:29:34;;;;;;;16.75;7.57;;;;;;;9.35;76.65;98527.78;4972932;28;20041;-74
2021/12/24 10:32:12;;;;;;;16.95;7.45;;;;;;;9.45;76.35;98525.38;4995781;28;20053;-77
2021/12/24 10:34:39;;;;;;;15.90;7.47;;;;;;;9.55;75.68;98518.59;5002729;28;20054;-76
2021/12/24 10:37:10;;;;;;;24.00;8.52;;;;;;;9.56;75.63;98524.69;5000519;28;20054;-78
2021/12/24 10:39:41;;;;;;;19.58;9.70;;;;;;;9.58;75.01;98507.84;5000576;28;20031;-77
2021/12/24 10:42:12;;;;;;;15.82;7.88;;;;;;;9.75;75.06;98512.00;4998739;28;20034;-77
2021/12/24 10:44:39;;;;;;;19.05;8.18;;;;;;;9.73;74.70;98511.25;5001459;28;20088;-77
2021/12/24 10:47:12;;;;;;;21.50;8.50;;;;;;;9.70;75.11;98519.38;4974066;28;20046;-78
2021/12/24 10:50:52;;;;;;;20.45;8.20;;;;;;;9.61;74.97;98509.44;4966230;28;20069;-76
2021/12/24 10:55:20;;;;;;;24.42;10.18;;;;;;;9.53;75.37;98509.94;4993563;28;20043;-77
2021/12/24 10:57:51;;;;;;;18.33;7.15;;;;;;;9.52;75.36;98505.59;4977131;28;20578;-77
2021/12/24 11:00:20;;;;;;;24.48;7.78;;;;;;;9.56;75.70;98507.09;4995672;28;20418;-77
2021/12/24 11:02:53;;;;;;;27.92;7.35;;;;;;;9.60;75.61;98502.50;4992137;28;20034;-74
2021/12/24 11:05:27;;;;;;;15.52;8.32;;;;;;;9.55;75.50;98505.44;4989740;28;20033;-74
2021/12/24 11:07:53;;;;;;;20.42;6.97;;;;;;;9.52;75.69;98496.88;4989841;28;20430;-75
2021/12/24 11:10:22;;;;;;;20.38;6.93;;;;;;;9.48;75.39;98491.00;4990549;28;20034;-77
2021/12/24 11:12:54;;;;;;;20.63;7.68;;;;;;;9.45;75.87;98497.28;4984649;28;20499;-76
2021/12/24 11:15:33;;;;;;;19.13;7.47;;;;;;;9.42;75.81;98492.22;4991315;28;20034;-76
2021/12/24 11:18:22;;;;;;;17.42;6.70;;;;;;;9.36;76.02;98494.41;4990826;28;20042;-77
2021/12/24 11:20:59;;;;;;;19.70;7.30;;;;;;;9.29;75.98;98493.13;5001836;28;20039;-76
2021/12/24 11:23:30;;;;;;;28.45;7.68;;;;;;;9.21;76.29;98486.56;5003657;28;20033;-78
2021/12/24 11:25:58;;;;;;;26.00;8.35;;;;;;;9.31;75.99;98483.34;4996522;28;20038;-75
2021/12/24 11:28:25;;;;;;;17.02;8.10;;;;;;;9.38;75.64;98476.75;4989259;28;20134;-75
2021/12/24 11:30:54;;;;;;;19.38;7.45;;;;;;;9.34;76.02;98477.88;4988799;28;20434;-75
2021/12/24 11:33:22;;;;;;;20.65;6.32;;;;;;;9.37;76.27;98490.84;4989705;28;20403;-77
2021/12/24 11:35:49;;;;;;;18.90;6.68;;;;;;;9.39;75.66;98489.78;4987884;28;20061;-75
2021/12/24 11:38:20;;;;;;;19.95;7.07;;;;;;;9.43;75.83;98495.72;4988764;28;20384;-78
2021/12/24 11:40:53;;;;;;;21.25;8.23;;;;;;;9.46;75.55;98500.75;4973329;28;20043;-76
2021/12/24 11:43:21;;;;;;;19.98;7.13;;;;;;;9.54;75.44;98500.25;4993320;28;20030;-74
2021/12/24 11:45:47;;;;;;;16.05;7.20;;;;;;;9.53;76.19;98501.22;4996533;28;20034;-76
2021/12/24 11:48:13;;;;;;;15.35;6.53;;;;;;;9.58;76.12;98493.84;4983106;28;20083;-77
2021/12/24 11:50:38;;;;;;;18.75;7.38;;;;;;;9.55;75.11;98486.16;5004552;28;20046;-75
2021/12/24 11:53:07;;;;;;;12.68;5.78;;;;;;;9.56;75.76;98483.44;4995395;28;20080;-74
2021/12/24 11:55:41;;;;;;;10.05;6.05;;;;;;;9.51;75.42;98480.25;4986612;28;20030;-74
2021/12/24 11:58:15;;;;;;;23.00;6.53;;;;;;;9.49;75.15;98474.25;4988273;28;20038;-75
2021/12/24 12:00:44;;;;;;;19.17;8.40;;;;;;;9.52;75.77;98465.31;4987165;28;20676;-76
2021/12/24 12:03:28;;;;;;;17.02;8.93;;;;;;;9.50;75.48;98470.69;4988430;28;20034;-74
2021/12/24 12:05:54;;;;;;;15.80;6.40;;;;;;;9.45;75.79;98476.25;4992460;28;20081;-76
2021/12/24 12:08:25;;;;;;;17.73;7.72;;;;;;;9.45;75.82;98476.25;4994812;28;20034;-77
2021/12/24 12:11:06;;;;;;;13.27;6.95;;;;;;;9.44;75.53;98478.97;4977496;28;20044;-76
2021/12/24 12:13:43;;;;;;;17.50;7.32;;;;;;;9.42;76.14;98480.84;4976971;28;20030;-76
2021/12/24 12:16:11;;;;;;;16.02;6.10;;;;;;;9.40;76.62;98480.09;4991214;28;20042;-76
2021/12/24 12:18:44;;;;;;;25.92;9.90;;;;;;;9.37;75.51;98482.94;4990669;28;20049;-76
2021/12/24 12:21:36;;;;;;;18.58;6.13;;;;;;;9.41;75.93;98473.91;4990653;28;20038;-77
2021/12/24 12:26:45;;;;;;;26.33;10.25;;;;;;;9.53;75.65;98465.22;4992031;28;20030;-74
2021/12/24 12:29:22;;;;;;;19.00;7.57;;;;;;;9.59;75.61;98477.94;4992864;28;20244;-75
2021/12/24 12:31:51;;;;;;;17.50;8.10;;;;;;;9.59;75.46;98463.97;4992310;28;20042;-75
2021/12/24 12:34:38;;;;;;;15.82;6.47;;;;;;;9.61;75.64;98454.19;4990076;28;20023;-74
2021/12/24 12:37:16;;;;;;;16.08;7.28;;;;;;;9.65;75.51;98453.03;4972374;28;20046;-74
2021/12/24 12:39:42;;;;;;;17.45;6.22;;;;;;;9.65;75.23;98442.50;4989935;28;20495;-75
2021/12/24 12:42:08;;;;;;;24.98;7.55;;;;;;;9.68;75.08;98445.78;4989900;28;20093;-74
2021/12/24 12:44:37;;;;;;;17.55;7.93;;;;;;;9.69;74.99;98441.34;4989638;28;20026;-75
2021/12/24 12:47:11;;;;;;;13.40;6.05;;;;;;;9.66;74.96;98429.22;4989642;28;20073;-77
2021/12/24 12:49:36;;;;;;;12.88;5.50;;;;;;;9.70;74.74;98429.03;4990817;28;20045;-75
2021/12/24 12:52:16;;;;;;;17.42;6.85;;;;;;;9.73;74.08;98428.84;4991641;28;20046;-76
2021/12/24 12:54:44;;;;;;;19.17;7.50;;;;;;;9.71;74.78;98431.56;4991852;28;20050;-75
2021/12/24 12:57:12;;;;;;;17.27;5.93;;;;;;;9.72;74.63;98435.03;4974466;28;20167;-74
2021/12/24 12:59:39;;;;;;;18.17;6.80;;;;;;;9.71;74.42;98431.56;4992088;28;20494;-76
2021/12/24 13:02:04;;;;;;;16.02;6.90;;;;;;;9.71;74.71;98431.56;4992613;28;20045;-74
2021/12/24 13:04:31;;;;;;;19.05;8.02;;;;;;;9.73;74.77;98434.09;4991358;28;20042;-74
2021/12/24 13:06:57;;;;;;;17.27;6.22;;;;;;;9.65;74.55;98434.63;4991581;28;20037;-74
2021/12/24 13:09:34;;;;;;;25.92;6.70;;;;;;;9.60;74.96;98436.72;4991434;28;20057;-76
2021/12/24 13:12:03;;;;;;;15.18;6.90;;;;;;;9.63;74.56;98444.41;4988487;28;20062;-76
2021/12/24 13:14:32;;;;;;;15.18;7.00;;;;;;;9.63;74.80;98442.59;4989190;28;20038;-76
2021/12/24 13:17:32;;;;;;;17.15;6.57;;;;;;;9.66;74.71;98454.72;4990923;28;20042;-76